Wakefield, Mississippi
Current Conditions -  °F | °C
As of 5:55 AM on Thursday 27 Nov 2014 (Local Time) from KUTA Reporting Station
Overcast Overcast  
Wind Chill: 28°   Ceiling: 3400
Heat Index: 37°   Visibility: 10mi
Dew Point: 30°   Wind: 17mph
Humidity: 75%   Direction: 340°NNW
Pressure: 30.41"   Gusts: 22mph
Location:  34.6957°N, 90.0062°W
Report Text: KUTA 271155Z AUTO 34015G19KT 10SM OVC034 03/M01 A3041 RMK AO2
Loading
Personal Weather Stations






























Interactive Weather Map New forecast layout! Learn more

10-Day Weather Forecast

Advertisements
Track Severe Weather on mobile